createdAt,value
2022-12-18T00:16:45.794Z,-2.95
2022-12-18T00:38:29.126Z,-3.05
2022-12-18T01:00:15.641Z,-3.10
2022-12-18T01:43:57.947Z,-2.72
2022-12-18T02:05:47.016Z,-2.64
2022-12-18T02:38:16.944Z,-2.68
2022-12-18T03:00:09.922Z,-2.58
2022-12-18T03:21:59.424Z,-2.75
2022-12-18T03:43:51.327Z,-2.76
2022-12-18T04:05:39.088Z,-2.75
2022-12-18T04:27:26.059Z,-2.79
2022-12-18T04:49:12.503Z,-2.91
2022-12-18T05:11:05.336Z,-2.78
2022-12-18T05:32:51.244Z,-3.19
2022-12-18T05:54:37.442Z,-3.26
2022-12-18T06:16:21.853Z,-3.09
2022-12-18T06:38:07.672Z,-3.43
2022-12-18T06:59:53.476Z,-3.48
2022-12-18T07:21:39.386Z,-3.32
2022-12-18T07:43:25.131Z,-3.51
2022-12-18T08:05:09.950Z,-3.57
2022-12-18T08:27:13.459Z,-3.33
2022-12-18T08:49:01.435Z,-3.50
2022-12-18T09:10:50.033Z,-3.14
2022-12-18T09:32:35.823Z,-2.51
2022-12-18T09:54:22.666Z,-2.71
2022-12-18T10:16:18.708Z,-2.90
2022-12-18T10:38:07.779Z,-3.00
2022-12-18T10:59:58.704Z,-2.89
2022-12-18T11:21:45.139Z,-2.52
2022-12-18T11:43:34.206Z,-2.32
2022-12-18T12:13:26.364Z,-2.07
2022-12-18T12:35:27.383Z,-2.29
2022-12-18T12:57:18.175Z,-2.06
2022-12-18T13:28:17.797Z,-2.58
2022-12-18T13:50:11.140Z,-2.87
2022-12-18T14:12:18.610Z,-2.78
2022-12-18T14:43:17.700Z,-3.39
2022-12-18T15:05:12.701Z,-3.58
2022-12-18T15:43:44.398Z,-3.82
2022-12-18T16:05:30.898Z,-4.00
2022-12-18T16:27:16.648Z,-4.51
2022-12-18T16:49:03.196Z,-4.62
2022-12-18T17:10:48.891Z,-4.94
2022-12-18T17:32:34.685Z,-5.25
2022-12-18T17:54:20.599Z,-5.36
2022-12-18T18:16:07.063Z,-5.58
2022-12-18T18:37:52.912Z,-6.06
2022-12-18T18:59:39.432Z,-6.11
2022-12-18T19:43:25.180Z,-6.18
2022-12-18T20:05:14.116Z,-6.63
2022-12-18T20:43:45.058Z,-6.70
2022-12-18T21:05:31.248Z,-7.08
2022-12-18T21:27:18.121Z,-6.98
2022-12-18T21:49:05.296Z,-6.85
2022-12-18T22:10:50.957Z,-6.70
2022-12-18T22:43:40.548Z,-6.58
2022-12-18T23:05:26.293Z,-7.05
2022-12-18T23:27:12.330Z,-7.17
2022-12-18T23:49:00.187Z,-7.23
